Time;durP1;ratioP1;P1;durP2;ratioP2;P2;SDS_P1;SDS_P2;PMS_P1;PMS_P2;Temp;Humidity;BMP_temperature;BMP_pressure;BME280_temperature;BME280_humidity;BME280_pressure;Samples;Min_cycle;Max_cycle;Signal;HPM_P1;HPM_P2
2022/04/08 00:02:21;;;;;;;3.80;3.37;;;7.80;1.00;;;;;;6259680;28;20237;-57
2022/04/08 00:05:24;;;;;;;4.00;3.70;;;7.90;1.00;;;;;;6261635;28;20238;-57
2022/04/08 00:08:26;;;;;;;3.47;3.20;;;8.00;1.00;;;;;;6278718;28;21069;-56
2022/04/08 00:11:29;;;;;;;3.30;3.10;;;8.00;1.00;;;;;;6267443;28;20233;-54
2022/04/08 00:14:33;;;;;;;3.77;3.43;;;7.80;1.00;;;;;;6277931;28;20320;-56
2022/04/08 00:17:36;;;;;;;4.60;3.27;;;8.00;1.00;;;;;;6278635;28;20234;-58
2022/04/08 00:20:39;;;;;;;5.10;3.30;;;7.90;1.00;;;;;;6261217;28;20316;-57
2022/04/08 00:23:42;;;;;;;3.40;3.20;;;7.90;1.00;;;;;;6260154;28;20312;-58
2022/04/08 00:26:46;;;;;;;3.67;3.47;;;7.80;1.00;;;;;;6259589;28;20379;-58
2022/04/08 00:29:50;;;;;;;4.73;3.60;;;7.70;1.00;;;;;;6260651;28;20237;-59
2022/04/08 00:32:56;;;;;;;3.10;3.07;;;7.80;1.00;;;;;;6266586;28;20233;-58
2022/04/08 00:35:59;;;;;;;3.97;3.63;;;7.90;1.00;;;;;;6274146;28;20474;-58
2022/04/08 00:39:02;;;;;;;3.73;3.40;;;7.70;1.00;;;;;;6278444;28;20598;-56
2022/04/08 00:42:06;;;;;;;4.60;3.60;;;7.70;1.00;;;;;;6259921;28;20795;-57
2022/04/08 00:45:10;;;;;;;3.50;3.40;;;7.70;1.00;;;;;;6247490;28;20301;-57
2022/04/08 00:48:13;;;;;;;3.47;3.30;;;7.70;1.00;;;;;;6235480;28;20251;-56
2022/04/08 00:51:16;;;;;;;4.10;3.80;;;7.60;1.00;;;;;;6235900;28;22602;-57
2022/04/08 00:54:20;;;;;;;3.33;3.13;;;7.60;1.00;;;;;;6239898;28;20246;-58
2022/04/08 00:57:23;;;;;;;3.07;3.00;;;7.60;1.00;;;;;;6235637;28;20824;-57
2022/04/08 01:00:31;;;;;;;4.23;3.50;;;7.60;1.00;;;;;;6235400;28;20238;-58
2022/04/08 01:03:34;;;;;;;3.23;3.10;;;7.60;1.00;;;;;;6246995;28;20392;-57
2022/04/08 01:06:37;;;;;;;3.03;2.93;;;7.60;1.00;;;;;;6253657;28;20244;-57
2022/04/08 01:09:40;;;;;;;2.80;2.70;;;7.70;1.00;;;;;;6263999;28;20316;-56
2022/04/08 01:12:43;;;;;;;3.00;2.90;;;7.70;1.00;;;;;;6256994;28;20234;-56
2022/04/08 01:15:47;;;;;;;3.07;2.90;;;7.60;1.00;;;;;;6260643;28;20238;-57
2022/04/08 01:18:50;;;;;;;2.73;2.73;;;7.70;1.00;;;;;;6243473;28;20381;-57
2022/04/08 01:21:53;;;;;;;2.87;2.77;;;7.70;1.00;;;;;;6236934;28;20745;-58
2022/04/08 01:25:01;;;;;;;2.60;2.60;;;7.70;1.00;;;;;;6235343;28;20325;-57
2022/04/08 01:28:05;;;;;;;2.83;2.73;;;7.70;1.00;;;;;;6234569;28;20566;-57
2022/04/08 01:31:07;;;;;;;3.10;2.87;;;7.70;1.00;;;;;;6234680;28;20322;-57
2022/04/08 01:34:10;;;;;;;3.07;2.90;;;7.70;1.00;;;;;;6242555;28;20226;-59
2022/04/08 01:37:14;;;;;;;3.83;2.80;;;7.70;1.00;;;;;;6245021;28;20756;-57
2022/04/08 01:40:18;;;;;;;3.27;2.93;;;7.70;1.00;;;;;;6257999;28;20396;-57
2022/04/08 01:43:21;;;;;;;2.63;2.63;;;7.70;1.00;;;;;;6256945;28;20234;-59
2022/04/08 01:46:23;;;;;;;3.20;3.00;;;7.90;1.00;;;;;;6259298;28;20307;-58
2022/04/08 01:49:26;;;;;;;3.63;3.40;;;7.60;1.00;;;;;;6253727;28;20598;-58
2022/04/08 01:52:29;;;;;;;2.70;2.70;;;7.50;1.00;;;;;;6233948;28;20246;-58
2022/04/08 01:55:33;;;;;;;3.13;2.70;;;7.50;1.00;;;;;;6234327;28;20334;-57
2022/04/08 01:58:36;;;;;;;3.00;2.90;;;7.50;1.00;;;;;;6234833;28;20322;-59
2022/04/08 02:01:39;;;;;;;3.10;3.00;;;7.50;1.00;;;;;;6234554;28;20239;-57
2022/04/08 02:04:41;;;;;;;2.90;2.80;;;7.50;1.00;;;;;;6237177;28;20620;-56
2022/04/08 02:07:44;;;;;;;3.30;3.10;;;7.60;1.00;;;;;;6266380;28;20930;-57
2022/04/08 02:10:48;;;;;;;3.00;2.80;;;7.60;1.00;;;;;;6256953;28;20252;-57
2022/04/08 02:13:51;;;;;;;2.97;2.87;;;7.60;1.00;;;;;;6254542;28;20529;-57
2022/04/08 02:16:54;;;;;;;2.90;2.80;;;7.60;1.00;;;;;;6239862;28;20707;-57
2022/04/08 02:19:57;;;;;;;3.13;2.93;;;7.60;1.00;;;;;;6235184;28;20373;-58
2022/04/08 02:23:00;;;;;;;3.20;3.10;;;7.60;1.00;;;;;;6242984;28;20234;-56
2022/04/08 02:26:06;;;;;;;3.10;3.00;;;7.50;1.00;;;;;;6234928;28;20304;-56
2022/04/08 02:29:09;;;;;;;3.37;3.07;;;7.50;1.00;;;;;;6234718;28;20755;-57
2022/04/08 02:32:12;;;;;;;2.67;2.67;;;7.50;1.00;;;;;;6235474;28;20547;-58
2022/04/08 02:35:15;;;;;;;3.30;3.10;;;7.50;1.00;;;;;;6258872;28;20234;-56
2022/04/08 02:38:18;;;;;;;3.83;3.03;;;7.50;1.00;;;;;;6261231;28;20294;-56
2022/04/08 02:41:22;;;;;;;3.27;3.07;;;7.50;1.00;;;;;;6257124;28;20934;-56
2022/04/08 02:44:24;;;;;;;3.27;3.00;;;7.60;1.00;;;;;;6257604;28;20248;-57
2022/04/08 02:47:27;;;;;;;3.17;2.97;;;7.60;1.00;;;;;;6245143;28;20273;-57
2022/04/08 02:50:30;;;;;;;2.97;2.90;;;7.60;1.00;;;;;;6234013;28;20739;-57
2022/04/08 02:53:33;;;;;;;3.20;3.10;;;7.60;1.00;;;;;;6233333;28;20249;-58
2022/04/08 02:56:39;;;;;;;2.90;2.80;;;7.60;1.00;;;;;;6233419;28;20303;-57
2022/04/08 02:59:41;;;;;;;3.07;2.87;;;7.60;1.00;;;;;;6250513;28;20242;-57
2022/04/08 03:02:44;;;;;;;3.10;2.83;;;7.70;1.00;;;;;;6256808;28;20240;-56
2022/04/08 03:05:47;;;;;;;3.00;2.70;;;7.70;1.00;;;;;;6246836;28;20230;-57
2022/04/08 03:08:50;;;;;;;4.37;2.80;;;7.70;1.00;;;;;;6263165;28;20261;-56
2022/04/08 03:11:54;;;;;;;3.07;2.90;;;7.70;1.00;;;;;;6259232;28;20283;-56
2022/04/08 03:14:57;;;;;;;4.17;3.87;;;7.60;1.00;;;;;;6259372;28;20451;-57
2022/04/08 03:18:00;;;;;;;3.17;3.03;;;7.70;1.00;;;;;;6238088;28;20345;-56
2022/04/08 03:21:03;;;;;;;2.90;2.80;;;7.70;1.00;;;;;;6238268;28;20354;-56
2022/04/08 03:24:09;;;;;;;3.03;2.80;;;7.70;1.00;;;;;;6238038;28;20384;-56
2022/04/08 03:27:13;;;;;;;2.67;2.57;;;7.60;1.00;;;;;;6242510;28;20265;-57
2022/04/08 03:30:16;;;;;;;3.13;3.00;;;7.60;1.00;;;;;;6248288;28;20607;-56
2022/04/08 03:33:19;;;;;;;3.00;2.80;;;7.70;1.00;;;;;;6237502;28;20242;-56
2022/04/08 03:36:22;;;;;;;3.57;2.90;;;7.70;1.00;;;;;;6269037;28;20320;-55
2022/04/08 03:39:24;;;;;;;3.03;2.93;;;7.70;1.00;;;;;;6266442;28;20253;-56
2022/04/08 03:42:28;;;;;;;2.77;2.60;;;7.70;1.00;;;;;;6264343;28;20387;-55
2022/04/08 03:45:31;;;;;;;3.07;2.97;;;7.70;1.00;;;;;;6271005;28;20610;-57
2022/04/08 03:48:34;;;;;;;3.13;2.80;;;7.80;1.00;;;;;;6266835;28;20317;-55
2022/04/08 03:51:36;;;;;;;2.80;2.80;;;7.70;1.00;;;;;;6257964;28;20296;-56
2022/04/08 03:54:40;;;;;;;3.40;3.00;;;7.70;1.00;;;;;;6257585;28;20371;-56
2022/04/08 03:57:44;;;;;;;2.90;2.70;;;7.60;1.00;;;;;;6264699;28;20297;-58
2022/04/08 04:00:47;;;;;;;3.00;2.90;;;7.60;1.00;;;;;;6263857;28;20886;-57
2022/04/08 04:03:50;;;;;;;3.07;2.87;;;7.60;1.00;;;;;;6271480;28;20777;-56
2022/04/08 04:06:53;;;;;;;3.10;2.90;;;7.50;1.00;;;;;;6255775;28;20428;-58
2022/04/08 04:09:56;;;;;;;2.97;2.80;;;7.40;1.00;;;;;;6265540;28;20604;-57
2022/04/08 04:13:00;;;;;;;2.63;2.63;;;7.40;1.00;;;;;;6271642;28;20218;-57
2022/04/08 04:16:03;;;;;;;2.60;2.60;;;7.40;1.00;;;;;;6260028;28;20725;-57
2022/04/08 04:19:06;;;;;;;2.93;2.73;;;7.40;1.00;;;;;;6265287;28;20269;-56
2022/04/08 04:22:09;;;;;;;2.90;2.80;;;7.30;1.00;;;;;;6271432;28;20371;-57
2022/04/08 04:25:12;;;;;;;2.90;2.80;;;7.20;1.00;;;;;;6264058;28;20608;-56
2022/04/08 04:28:16;;;;;;;2.50;2.50;;;7.20;1.00;;;;;;6261794;28;20774;-57
2022/04/08 04:31:19;;;;;;;2.50;2.50;;;7.20;1.00;;;;;;6260857;28;20242;-58
2022/04/08 04:34:23;;;;;;;2.73;2.73;;;7.10;1.00;;;;;;6261175;28;20234;-57
2022/04/08 04:37:25;;;;;;;2.70;2.60;;;7.00;1.00;;;;;;6260426;28;20785;-58
2022/04/08 04:40:28;;;;;;;2.90;2.70;;;7.10;1.00;;;;;;6272050;28;20233;-58
2022/04/08 04:43:33;;;;;;;2.90;2.80;;;7.00;1.00;;;;;;6262747;28;20398;-57
2022/04/08 04:46:36;;;;;;;3.10;2.90;;;7.00;1.00;;;;;;6264479;28;20247;-56
2022/04/08 04:49:39;;;;;;;2.97;2.77;;;6.90;1.00;;;;;;6278389;28;20240;-56
2022/04/08 04:52:41;;;;;;;2.70;2.60;;;6.90;1.00;;;;;;6264355;28;20392;-56
2022/04/08 04:55:44;;;;;;;2.93;2.83;;;6.80;1.00;;;;;;6261984;28;20381;-57
2022/04/08 04:58:48;;;;;;;3.93;3.30;;;6.90;1.00;;;;;;6282767;28;20234;-57
2022/04/08 05:01:51;;;;;;;2.77;2.63;;;6.80;1.00;;;;;;6264104;28;20350;-56
2022/04/08 05:04:54;;;;;;;2.90;2.70;;;6.70;1.00;;;;;;6261385;28;20284;-55
2022/04/08 05:08:00;;;;;;;3.00;2.93;;;6.70;1.00;;;;;;6265975;28;20379;-57
2022/04/08 05:11:04;;;;;;;2.90;2.80;;;6.60;1.00;;;;;;6267867;28;20428;-56
2022/04/08 05:14:08;;;;;;;3.20;3.00;;;6.80;1.00;;;;;;6268339;28;20233;-55
2022/04/08 05:17:10;;;;;;;2.83;2.73;;;6.80;1.00;;;;;;6271431;28;20232;-57
2022/04/08 05:20:14;;;;;;;3.43;3.30;;;6.50;1.00;;;;;;6280862;28;20262;-57
2022/04/08 05:23:16;;;;;;;2.90;2.80;;;6.80;1.00;;;;;;6286403;28;20233;-58
2022/04/08 05:26:19;;;;;;;2.80;2.70;;;6.50;1.00;;;;;;6266930;28;20531;-56
2022/04/08 05:29:24;;;;;;;3.43;3.17;;;6.80;1.00;;;;;;6261401;28;20245;-56
2022/04/08 05:32:26;;;;;;;3.07;2.87;;;6.60;1.00;;;;;;6258029;28;20326;-56
2022/04/08 05:35:29;;;;;;;2.90;2.80;;;6.90;1.00;;;;;;6259747;28;20266;-56
2022/04/08 05:38:32;;;;;;;3.10;3.00;;;6.60;1.00;;;;;;6264817;28;20260;-56
2022/04/08 05:41:35;;;;;;;3.43;3.23;;;6.90;1.00;;;;;;6260990;28;20229;-56
2022/04/08 05:44:39;;;;;;;3.03;2.83;;;6.60;1.00;;;;;;6262120;28;20496;-57
2022/04/08 05:47:42;;;;;;;3.23;3.03;;;6.70;1.00;;;;;;6286464;28;20359;-55
2022/04/08 05:50:44;;;;;;;2.80;2.70;;;6.60;1.00;;;;;;6287093;28;20368;-56
2022/04/08 05:53:47;;;;;;;3.10;2.80;;;6.60;1.00;;;;;;6265679;28;20244;-56
2022/04/08 05:56:53;;;;;;;2.73;2.73;;;6.50;1.00;;;;;;6273920;28;20308;-56
2022/04/08 06:00:00;;;;;;;3.13;3.03;;;6.70;1.00;;;;;;6264122;28;20237;-56
2022/04/08 06:03:03;;;;;;;2.93;2.90;;;6.50;1.00;;;;;;6267658;28;20234;-55
2022/04/08 06:06:06;;;;;;;3.30;3.07;;;6.60;1.00;;;;;;6275541;28;20252;-56
2022/04/08 06:09:09;;;;;;;3.10;3.00;;;6.60;1.00;;;;;;6261330;28;20396;-56
2022/04/08 06:12:11;;;;;;;3.27;3.07;;;6.60;1.00;;;;;;6256553;28;20229;-56
2022/04/08 06:15:15;;;;;;;3.70;3.50;;;6.60;1.00;;;;;;6264179;28;20240;-63
2022/04/08 06:18:18;;;;;;;2.80;2.70;;;6.80;1.00;;;;;;6262008;28;20226;-56
2022/04/08 06:21:21;;;;;;;3.30;3.00;;;6.50;1.00;;;;;;6262499;28;20245;-56
2022/04/08 06:24:23;;;;;;;3.43;3.23;;;6.70;1.00;;;;;;6262760;28;20274;-56
2022/04/08 06:27:26;;;;;;;3.13;3.03;;;6.70;1.00;;;;;;6258303;28;20238;-57
2022/04/08 06:30:31;;;;;;;3.00;2.90;;;6.80;1.00;;;;;;6258189;28;20299;-57
2022/04/08 06:33:34;;;;;;;3.33;3.13;;;6.80;1.00;;;;;;6259353;28;20242;-56
2022/04/08 06:36:36;;;;;;;3.30;3.00;;;6.90;1.00;;;;;;6258332;28;20840;-55
2022/04/08 06:39:39;;;;;;;3.23;3.03;;;6.90;1.00;;;;;;6251494;28;20243;-56
2022/04/08 06:42:42;;;;;;;3.17;2.97;;;6.70;1.00;;;;;;6258357;28;20320;-56
2022/04/08 06:45:46;;;;;;;2.90;2.90;;;7.00;1.00;;;;;;6258175;28;20248;-55
2022/04/08 06:48:49;;;;;;;3.30;3.20;;;7.00;1.00;;;;;;6257678;28;20238;-55
2022/04/08 06:51:53;;;;;;;2.97;2.77;;;6.80;1.00;;;;;;6259831;28;20287;-55
2022/04/08 06:54:56;;;;;;;2.80;2.70;;;6.50;1.00;;;;;;6260739;28;20245;-55
2022/04/08 06:57:59;;;;;;;2.77;2.67;;;6.10;1.00;;;;;;6256014;28;20240;-56
2022/04/08 07:01:03;;;;;;;2.93;2.83;;;5.90;1.00;;;;;;6258605;28;20321;-56
2022/04/08 07:04:06;;;;;;;3.63;3.43;;;5.90;1.00;;;;;;6254060;28;20260;-56
2022/04/08 07:07:09;;;;;;;2.93;2.73;;;5.40;1.00;;;;;;6257175;28;20503;-56
2022/04/08 07:10:12;;;;;;;3.13;2.87;;;5.30;1.00;;;;;;6252601;28;20234;-55
2022/04/08 07:13:14;;;;;;;3.10;2.90;;;5.40;1.00;;;;;;6258365;28;20229;-57
2022/04/08 07:16:19;;;;;;;3.73;3.40;;;5.10;1.00;;;;;;6259547;28;20259;-55
2022/04/08 07:19:21;;;;;;;3.60;3.30;;;4.70;1.00;;;;;;6261600;28;20248;-57
2022/04/08 07:22:25;;;;;;;3.27;3.07;;;4.90;1.00;;;;;;6250643;28;20794;-57
2022/04/08 07:25:28;;;;;;;3.30;3.20;;;4.90;1.00;;;;;;6260694;28;20756;-56
2022/04/08 07:28:32;;;;;;;3.63;3.37;;;4.70;1.00;;;;;;6256903;28;20309;-57
2022/04/08 07:31:36;;;;;;;4.57;3.07;;;5.00;1.00;;;;;;6243493;28;20265;-55
2022/04/08 07:34:39;;;;;;;3.73;3.40;;;4.90;1.00;;;;;;6259055;28;20389;-57
2022/04/08 07:37:42;;;;;;;3.23;3.03;;;5.30;1.00;;;;;;6259484;28;20235;-56
2022/04/08 07:40:45;;;;;;;3.47;3.17;;;5.40;1.00;;;;;;6262506;28;20238;-56
2022/04/08 07:43:49;;;;;;;3.17;2.97;;;5.80;1.00;;;;;;6263420;28;20258;-56
2022/04/08 07:46:53;;;;;;;3.20;3.00;;;5.80;1.00;;;;;;6264387;28;20249;-57
2022/04/08 07:49:57;;;;;;;4.17;3.30;;;5.80;1.00;;;;;;6260838;28;20310;-56
2022/04/08 07:53:00;;;;;;;3.13;2.90;;;6.00;1.00;;;;;;6267475;28;20226;-57
2022/04/08 07:56:03;;;;;;;3.50;3.30;;;5.90;1.00;;;;;;6276872;28;20308;-57
2022/04/08 07:59:05;;;;;;;3.60;3.13;;;5.90;1.00;;;;;;6264519;28;20308;-56
2022/04/08 08:02:10;;;;;;;5.47;3.50;;;6.10;1.00;;;;;;6260930;28;20333;-57
2022/04/08 08:05:13;;;;;;;8.80;3.87;;;6.30;1.00;;;;;;6267299;28;20323;-56
2022/04/08 08:08:16;;;;;;;5.13;3.50;;;6.70;1.00;;;;;;6273156;28;20240;-57
2022/04/08 08:11:21;;;;;;;3.30;3.00;;;6.60;1.00;;;;;;6259913;28;20328;-57
2022/04/08 08:14:31;;;;;;;3.53;3.23;;;6.80;1.00;;;;;;6263077;28;20245;-56
2022/04/08 08:17:35;;;;;;;3.63;3.40;;;6.80;1.00;;;;;;6257628;28;20695;-57
2022/04/08 08:20:38;;;;;;;3.47;3.23;;;6.90;1.00;;;;;;6268169;28;20693;-57
2022/04/08 08:23:41;;;;;;;7.53;3.97;;;7.00;1.00;;;;;;6255972;28;20238;-56
2022/04/08 08:26:44;;;;;;;7.97;3.20;;;7.00;1.00;;;;;;6260487;28;20394;-57
2022/04/08 08:29:46;;;;;;;5.50;3.40;;;6.60;1.00;;;;;;6264711;28;20690;-56
2022/04/08 08:32:51;;;;;;;4.07;3.60;;;7.20;1.00;;;;;;6267989;28;20316;-57
2022/04/08 08:35:54;;;;;;;4.53;3.50;;;7.60;1.00;;;;;;6264606;28;20245;-57
2022/04/08 08:38:56;;;;;;;12.93;3.67;;;7.50;1.00;;;;;;6288962;28;20752;-57
2022/04/08 08:41:59;;;;;;;5.13;3.43;;;7.70;1.00;;;;;;6288259;28;20741;-56
2022/04/08 08:45:02;;;;;;;10.07;3.90;;;8.00;1.00;;;;;;6296446;28;20236;-57
2022/04/08 08:48:07;;;;;;;4.27;3.40;;;8.00;1.00;;;;;;6293038;28;20225;-57
2022/04/08 08:51:11;;;;;;;15.13;3.60;;;8.00;1.00;;;;;;6289918;28;20316;-60
2022/04/08 08:54:14;;;;;;;7.17;3.60;;;8.00;1.00;;;;;;6291059;28;20314;-57
2022/04/08 08:57:18;;;;;;;3.23;2.93;;;8.10;1.00;;;;;;6284069;28;20330;-57
2022/04/08 09:00:23;;;;;;;6.37;3.40;;;8.20;1.00;;;;;;6285935;28;20244;-57
2022/04/08 09:03:29;;;;;;;11.30;3.47;;;8.20;1.00;;;;;;6285000;28;20241;-58
2022/04/08 09:06:40;;;;;;;5.00;3.30;;;8.20;1.00;;;;;;6283247;28;20264;-57
2022/04/08 09:09:51;;;;;;;5.47;3.40;;;8.30;1.00;;;;;;6293986;28;20237;-58
2022/04/08 09:12:54;;;;;;;5.43;3.37;;;8.50;1.00;;;;;;6288546;28;20316;-58
2022/04/08 09:15:59;;;;;;;3.63;3.23;;;8.50;1.00;;;;;;6292520;28;20364;-57
2022/04/08 09:19:11;;;;;;;7.90;3.30;;;8.20;1.00;;;;;;6292340;28;20555;-57
2022/04/08 09:22:14;;;;;;;3.30;3.00;;;8.50;1.00;;;;;;6287715;28;20702;-57
2022/04/08 09:25:17;;;;;;;4.20;3.80;;;8.50;1.00;;;;;;6283886;28;20783;-57
2022/04/08 09:28:20;;;;;;;5.30;2.90;;;8.60;1.00;;;;;;6281249;28;20314;-56
2022/04/08 09:31:23;;;;;;;3.33;2.93;;;8.60;1.00;;;;;;6282921;28;20246;-57
2022/04/08 09:34:29;;;;;;;4.63;3.20;;;8.60;1.00;;;;;;6278323;28;20240;-57
2022/04/08 09:37:32;;;;;;;3.23;3.03;;;8.80;1.00;;;;;;6272606;28;20290;-58
2022/04/08 09:40:36;;;;;;;3.80;3.00;;;8.80;1.00;;;;;;6279109;28;20375;-57
2022/04/08 09:43:39;;;;;;;3.80;3.20;;;8.70;1.00;;;;;;6283175;28;20328;-56
2022/04/08 09:46:43;;;;;;;3.33;3.07;;;8.70;1.00;;;;;;6289042;28;20717;-57
2022/04/08 09:49:47;;;;;;;7.20;3.40;;;8.80;1.00;;;;;;6283009;28;20244;-57
2022/04/08 09:52:49;;;;;;;5.53;3.30;;;8.80;1.00;;;;;;6285138;28;20468;-57
2022/04/08 09:55:53;;;;;;;5.87;3.27;;;8.80;1.00;;;;;;6288111;28;20291;-58
2022/04/08 09:59:02;;;;;;;2.87;2.77;;;8.90;1.00;;;;;;6282621;28;20844;-57
2022/04/08 10:02:06;;;;;;;4.67;3.10;;;8.80;1.00;;;;;;6282070;28;20729;-60
2022/04/08 10:05:12;;;;;;;5.23;3.20;;;9.00;1.00;;;;;;6285306;28;20245;-57
2022/04/08 10:08:15;;;;;;;6.17;3.30;;;8.90;1.00;;;;;;6295371;28;20229;-57
2022/04/08 10:11:23;;;;;;;3.80;3.60;;;9.00;1.00;;;;;;6285347;28;20263;-58
2022/04/08 10:14:36;;;;;;;4.77;2.90;;;9.20;1.00;;;;;;6289451;28;20306;-58
2022/04/08 10:17:40;;;;;;;2.97;2.77;;;9.20;1.00;;;;;;6277415;28;20666;-57
2022/04/08 10:20:45;;;;;;;3.80;3.13;;;9.40;1.00;;;;;;6294707;28;20355;-58
2022/04/08 10:23:50;;;;;;;2.83;2.73;;;9.40;1.00;;;;;;6282566;28;20237;-57
2022/04/08 10:27:03;;;;;;;6.10;3.40;;;9.20;1.00;;;;;;6279689;28;20403;-57
2022/04/08 10:30:12;;;;;;;4.40;3.53;;;8.90;1.00;;;;;;6286325;28;20225;-57
2022/04/08 10:33:24;;;;;;;3.43;2.97;;;8.80;1.00;;;;;;6280921;28;20226;-57
2022/04/08 10:36:36;;;;;;;3.47;3.17;;;8.90;1.00;;;;;;6290388;28;20385;-57
2022/04/08 10:39:42;;;;;;;2.90;2.77;;;9.20;1.00;;;;;;6279412;28;20350;-57
2022/04/08 10:42:45;;;;;;;3.03;2.90;;;9.30;1.00;;;;;;6273121;28;20334;-57
2022/04/08 10:45:55;;;;;;;3.00;2.63;;;9.50;1.00;;;;;;6271747;28;20368;-56
2022/04/08 10:48:59;;;;;;;2.87;2.70;;;9.50;1.00;;;;;;6283430;28;20729;-57
2022/04/08 10:52:15;;;;;;;2.80;2.70;;;9.40;1.00;;;;;;6280807;28;20286;-56
2022/04/08 10:55:18;;;;;;;2.73;2.60;;;9.40;99.90;;;;;;6289015;28;20237;-57
2022/04/08 10:58:31;;;;;;;2.83;2.60;;;9.40;99.90;;;;;;6281507;28;20243;-57
2022/04/08 11:01:44;;;;;;;2.83;2.70;;;9.40;99.90;;;;;;6286340;28;20441;-60
2022/04/08 11:04:47;;;;;;;3.33;3.00;;;9.40;99.90;;;;;;6284890;28;20447;-57
2022/04/08 11:07:51;;;;;;;3.00;2.80;;;9.40;99.90;;;;;;6290928;28;20748;-57
2022/04/08 11:10:58;;;;;;;3.83;3.20;;;9.20;1.00;;;;;;6282482;28;20479;-57
2022/04/08 11:14:02;;;;;;;3.20;3.00;;;9.30;1.00;;;;;;6284219;28;20233;-57
2022/04/08 11:17:06;;;;;;;3.00;2.80;;;9.40;1.00;;;;;;6277996;28;20315;-57
2022/04/08 11:20:10;;;;;;;3.33;2.90;;;9.60;1.00;;;;;;6288072;28;20309;-57
2022/04/08 11:23:14;;;;;;;4.27;2.90;;;9.70;1.00;;;;;;6285264;28;20730;-56
2022/04/08 11:26:17;;;;;;;2.70;2.60;;;9.60;1.00;;;;;;6293092;28;20385;-55
2022/04/08 11:29:22;;;;;;;4.50;3.00;;;9.60;1.00;;;;;;6286175;28;20331;-56
2022/04/08 11:32:30;;;;;;;4.97;3.33;;;9.60;1.00;;;;;;6289657;28;20319;-57
2022/04/08 11:35:33;;;;;;;7.90;3.10;;;9.40;1.00;;;;;;6285532;28;20737;-56
2022/04/08 11:38:37;;;;;;;3.50;3.17;;;9.40;1.00;;;;;;6284321;28;20229;-57
2022/04/08 11:42:02;;;;;;;3.30;3.00;;;9.50;1.00;;;;;;6296907;28;20230;-57
2022/04/08 11:45:05;;;;;;;2.60;2.50;;;9.40;1.00;;;;;;6285348;28;20717;-57
2022/04/08 11:48:13;;;;;;;3.50;3.20;;;9.60;1.00;;;;;;6294767;28;20232;-57
2022/04/08 11:51:18;;;;;;;3.03;2.83;;;9.70;1.00;;;;;;6291020;28;20752;-57
2022/04/08 11:54:25;;;;;;;12.13;3.27;;;9.90;1.00;;;;;;6281042;28;20819;-57
2022/04/08 11:57:29;;;;;;;3.77;3.03;;;10.00;1.00;;;;;;6286376;28;20310;-58
2022/04/08 12:00:31;;;;;;;3.30;3.00;;;10.00;1.00;;;;;;6291451;28;20241;-57
2022/04/08 12:03:36;;;;;;;2.80;2.70;;;9.90;1.00;;;;;;6291514;28;20237;-57
2022/04/08 12:06:42;;;;;;;3.40;3.13;;;9.80;1.00;;;;;;6292295;28;20329;-57
2022/04/08 12:09:46;;;;;;;5.90;2.93;;;9.80;1.00;;;;;;6284411;28;20310;-58
2022/04/08 12:12:49;;;;;;;3.70;3.07;;;9.80;1.00;;;;;;6286735;28;20734;-57
2022/04/08 12:15:55;;;;;;;3.17;2.97;;;9.80;1.00;;;;;;6286286;28;20279;-57
2022/04/08 12:19:02;;;;;;;4.70;3.40;;;9.80;1.00;;;;;;6293066;28;20229;-56
2022/04/08 12:22:26;;;;;;;3.10;2.80;;;9.80;1.00;;;;;;6269421;28;20276;-57
2022/04/08 12:25:32;;;;;;;2.87;2.77;;;9.90;1.00;;;;;;6285991;28;20237;-57
2022/04/08 12:28:35;;;;;;;3.20;3.00;;;9.90;99.90;;;;;;6294034;28;20309;-57
2022/04/08 12:31:46;;;;;;;4.03;3.47;;;9.90;99.90;;;;;;6283017;28;20264;-57
2022/04/08 12:34:50;;;;;;;3.20;3.00;;;9.80;1.00;;;;;;6282059;28;20240;-57
2022/04/08 12:37:53;;;;;;;3.60;3.40;;;9.80;1.00;;;;;;6285481;28;20632;-57
2022/04/08 12:40:57;;;;;;;3.57;3.17;;;10.00;1.00;;;;;;6286155;28;20332;-59
2022/04/08 12:44:00;;;;;;;3.63;3.17;;;10.10;99.90;;;;;;6290644;28;20302;-57
2022/04/08 12:47:03;;;;;;;8.10;3.57;;;10.20;99.90;;;;;;6288954;28;20332;-57
2022/04/08 12:50:10;;;;;;;3.50;3.20;;;10.30;99.90;;;;;;6292981;28;20236;-57
2022/04/08 12:53:13;;;;;;;3.47;3.20;;;10.20;99.90;;;;;;6281378;28;20237;-56
2022/04/08 12:56:17;;;;;;;3.47;3.27;;;10.10;99.90;;;;;;6291980;28;20282;-57
2022/04/08 12:59:20;;;;;;;5.90;3.50;;;9.90;99.90;;;;;;6274957;28;20584;-57
2022/04/08 13:02:22;;;;;;;5.67;3.40;;;9.90;99.90;;;;;;6282604;28;20801;-54
2022/04/08 13:05:25;;;;;;;3.83;3.23;;;9.90;99.90;;;;;;6266378;28;20246;-57
2022/04/08 13:08:28;;;;;;;4.37;3.70;;;9.70;99.90;;;;;;6262394;28;20355;-57
2022/04/08 13:11:33;;;;;;;4.37;3.50;;;9.70;99.90;;;;;;6265554;28;20234;-57
2022/04/08 13:14:36;;;;;;;4.37;3.70;;;9.90;99.90;;;;;;6247032;28;21124;-58
2022/04/08 13:17:41;;;;;;;3.67;3.47;;;9.70;99.90;;;;;;6261189;28;20297;-57
2022/04/08 13:20:44;;;;;;;6.13;3.63;;;9.80;99.90;;;;;;6253387;28;20244;-57
2022/04/08 13:23:47;;;;;;;7.97;3.30;;;9.70;99.90;;;;;;6261435;28;20240;-56
2022/04/08 13:26:51;;;;;;;6.23;3.20;;;9.60;99.90;;;;;;6258563;28;20745;-57
2022/04/08 13:29:54;;;;;;;3.33;3.10;;;9.50;99.90;;;;;;6263826;28;20238;-57
2022/04/08 13:32:57;;;;;;;3.10;3.00;;;9.50;99.90;;;;;;6271108;28;20264;-57
2022/04/08 13:36:00;;;;;;;3.40;3.10;;;9.40;99.90;;;;;;6260363;28;20317;-57
2022/04/08 13:39:03;;;;;;;5.20;3.10;;;9.40;99.90;;;;;;6259740;28;20234;-56
2022/04/08 13:42:08;;;;;;;3.60;3.30;;;9.30;1.00;;;;;;6259834;28;20242;-57
2022/04/08 13:45:11;;;;;;;4.67;3.40;;;9.20;1.00;;;;;;6255428;28;20371;-57
2022/04/08 13:48:13;;;;;;;5.10;3.23;;;9.30;1.00;;;;;;6268097;28;20753;-58
2022/04/08 13:51:16;;;;;;;3.23;2.90;;;9.50;1.00;;;;;;6259292;28;20423;-56
2022/04/08 13:54:19;;;;;;;5.63;3.40;;;9.70;1.00;;;;;;6258919;28;20380;-56
2022/04/08 13:57:23;;;;;;;2.80;2.80;;;9.90;99.90;;;;;;6256920;28;20288;-58
2022/04/08 14:00:26;;;;;;;3.30;3.20;;;9.90;99.90;;;;;;6262514;28;20865;-57
2022/04/08 14:03:28;;;;;;;4.17;3.07;;;10.00;99.90;;;;;;6260919;28;20734;-55
2022/04/08 14:06:31;;;;;;;4.63;3.03;;;9.90;99.90;;;;;;6265107;28;20664;-57
2022/04/08 14:09:34;;;;;;;3.13;2.93;;;9.80;99.90;;;;;;6259973;28;20244;-56
2022/04/08 14:12:38;;;;;;;3.30;3.00;;;9.90;99.90;;;;;;6262140;28;20541;-56
2022/04/08 14:15:41;;;;;;;3.43;2.90;;;9.90;99.90;;;;;;6258248;28;20242;-56
2022/04/08 14:18:44;;;;;;;3.83;2.80;;;10.10;99.90;;;;;;6253163;28;20607;-57
2022/04/08 14:21:47;;;;;;;2.90;2.80;;;10.20;99.90;;;;;;6268132;28;20350;-58
2022/04/08 14:24:50;;;;;;;4.07;3.23;;;10.30;99.90;;;;;;6261129;28;20734;-54
2022/04/08 14:28:14;;;;;;;3.30;3.10;;;10.20;99.90;;;;;;6253729;28;20639;-56
2022/04/08 14:31:18;;;;;;;3.33;3.03;;;10.20;99.90;;;;;;6258515;28;20662;-56
2022/04/08 14:34:20;;;;;;;3.33;3.13;;;10.20;99.90;;;;;;6254416;28;20285;-56
2022/04/08 14:37:23;;;;;;;3.80;3.30;;;10.20;99.90;;;;;;6257715;28;20325;-57
2022/04/08 14:40:26;;;;;;;7.80;3.20;;;10.20;99.90;;;;;;6264943;28;20367;-57
2022/04/08 14:43:31;;;;;;;3.17;3.07;;;10.20;99.90;;;;;;6249784;28;20322;-57
2022/04/08 14:46:34;;;;;;;4.10;3.40;;;10.20;99.90;;;;;;6259662;28;20244;-56
2022/04/08 14:49:36;;;;;;;3.53;2.90;;;10.10;99.90;;;;;;6261964;28;20281;-54
2022/04/08 14:52:39;;;;;;;3.50;3.30;;;10.10;99.90;;;;;;6265344;28;20237;-55
2022/04/08 14:55:42;;;;;;;4.53;3.17;;;10.20;99.90;;;;;;6257574;28;20765;-54
2022/04/08 14:58:46;;;;;;;3.97;3.00;;;10.20;99.90;;;;;;6254066;28;20271;-56
2022/04/08 15:01:49;;;;;;;3.03;2.93;;;10.40;99.90;;;;;;6266239;28;20316;-55
2022/04/08 15:04:52;;;;;;;3.47;3.27;;;10.40;99.90;;;;;;6263932;28;20241;-57
2022/04/08 15:07:55;;;;;;;3.40;3.10;;;10.30;99.90;;;;;;6256335;28;20324;-58
2022/04/08 15:10:58;;;;;;;3.50;3.30;;;10.10;99.90;;;;;;6261959;28;20306;-57
2022/04/08 15:14:02;;;;;;;4.00;3.23;;;9.90;99.90;;;;;;6261455;28;20338;-57
2022/04/08 15:17:04;;;;;;;3.47;3.13;;;9.90;99.90;;;;;;6261436;28;20250;-56
2022/04/08 15:20:08;;;;;;;3.50;3.23;;;9.80;99.90;;;;;;6264384;28;20222;-57
2022/04/08 15:23:11;;;;;;;3.30;3.10;;;9.80;99.90;;;;;;6271410;28;20260;-58
2022/04/08 15:26:14;;;;;;;3.77;3.40;;;9.80;99.90;;;;;;6260284;28;20237;-56
2022/04/08 15:29:18;;;;;;;4.47;4.07;;;9.80;99.90;;;;;;6253035;28;20368;-58
2022/04/08 15:32:21;;;;;;;4.73;3.50;;;9.90;99.90;;;;;;6261831;28;20735;-57
2022/04/08 15:35:29;;;;;;;3.63;3.40;;;9.90;99.90;;;;;;6265520;28;20242;-57
2022/04/08 15:38:32;;;;;;;4.23;3.30;;;9.90;99.90;;;;;;6266589;28;20393;-58
2022/04/08 15:41:37;;;;;;;3.43;3.23;;;10.00;99.90;;;;;;6261585;28;20234;-59
2022/04/08 15:44:41;;;;;;;6.10;3.70;;;10.00;99.90;;;;;;6272561;28;20785;-56
2022/04/08 15:47:43;;;;;;;7.43;3.80;;;9.90;99.90;;;;;;6264286;28;20234;-57
2022/04/08 15:50:46;;;;;;;5.30;3.63;;;9.90;99.90;;;;;;6267125;28;20258;-57
2022/04/08 15:53:51;;;;;;;5.60;4.07;;;9.90;99.90;;;;;;6250495;28;20536;-59
2022/04/08 15:56:54;;;;;;;4.10;3.80;;;10.00;99.90;;;;;;6272288;28;20706;-56
2022/04/08 15:59:57;;;;;;;3.73;3.23;;;9.90;99.90;;;;;;6284623;28;20285;-59
2022/04/08 16:03:00;;;;;;;4.87;3.17;;;9.90;99.90;;;;;;6283757;28;20914;-56
2022/04/08 16:06:03;;;;;;;4.07;3.67;;;10.00;99.90;;;;;;6287150;28;20305;-56
2022/04/08 16:09:06;;;;;;;3.60;3.40;;;10.00;99.90;;;;;;6292432;28;20303;-57
2022/04/08 16:12:09;;;;;;;3.77;3.47;;;9.90;99.90;;;;;;6283339;28;20271;-56
2022/04/08 16:15:13;;;;;;;5.33;3.60;;;9.80;99.90;;;;;;6278457;28;20804;-56
2022/04/08 16:18:16;;;;;;;4.53;3.73;;;9.70;99.90;;;;;;6289904;28;20733;-56